Time;durP1;ratioP1;P1;durP2;ratioP2;P2;SDS_P1;SDS_P2;PMS_P1;PMS_P2;Temp;Humidity;BMP_temperature;BMP_pressure;BME280_temperature;BME280_humidity;BME280_pressure;Samples;Min_cycle;Max_cycle;Signal;HPM_P1;HPM_P2
2020/12/30 00:00:15;;;;;;;5.18;3.60;;;;;;;20.00;40.78;98053.06;5006635;28;20100;-77
2020/12/30 00:03:01;;;;;;;5.70;4.18;;;;;;;19.98;41.04;98045.25;4995129;28;20042;-79
2020/12/30 00:05:46;;;;;;;7.78;4.10;;;;;;;19.98;41.24;98053.16;4994632;28;20422;-78
2020/12/30 00:08:32;;;;;;;5.78;4.00;;;;;;;20.00;40.94;98053.06;4993645;28;20030;-79
2020/12/30 00:11:18;;;;;;;5.78;3.92;;;;;;;20.02;40.75;98046.78;4994577;28;20404;-79
2020/12/30 00:14:04;;;;;;;7.70;4.47;;;;;;;20.01;40.80;98052.13;4995283;28;20407;-79
2020/12/30 00:16:49;;;;;;;5.40;3.58;;;;;;;20.03;40.91;98052.91;4993251;28;20419;-78
2020/12/30 00:19:35;;;;;;;6.43;3.83;;;;;;;20.01;40.56;98052.97;4992788;28;20045;-77
2020/12/30 00:22:21;;;;;;;6.35;4.03;;;;;;;19.98;40.81;98061.03;4993677;28;20041;-80
2020/12/30 00:25:07;;;;;;;6.53;4.30;;;;;;;19.96;40.96;98062.03;4992642;28;20504;-79
2020/12/30 00:27:53;;;;;;;5.78;4.10;;;;;;;19.94;41.00;98062.13;4994498;28;20034;-78
2020/12/30 00:30:38;;;;;;;4.75;3.40;;;;;;;19.95;41.09;98070.84;4992993;28;20085;-80
2020/12/30 00:33:24;;;;;;;5.45;3.90;;;;;;;19.95;40.92;98069.09;4993186;28;20063;-79
2020/12/30 00:36:10;;;;;;;5.35;3.85;;;;;;;19.95;41.13;98066.47;4995009;28;20125;-80
2020/12/30 00:38:56;;;;;;;7.20;3.80;;;;;;;19.98;40.92;98065.44;4992187;28;20396;-78
2020/12/30 00:41:41;;;;;;;4.78;3.17;;;;;;;19.95;40.87;98061.19;4992850;28;20129;-79
2020/12/30 00:44:27;;;;;;;4.47;3.35;;;;;;;19.96;41.13;98062.03;4993423;28;20042;-80
2020/12/30 00:47:15;;;;;;;4.85;3.35;;;;;;;19.96;41.12;98062.91;4994283;28;20046;-78
2020/12/30 00:50:01;;;;;;;5.85;3.88;;;;;;;19.96;41.00;98065.53;4993901;28;20062;-79
2020/12/30 00:52:48;;;;;;;4.53;3.10;;;;;;;19.95;40.95;98068.22;4994041;28;20034;-80
2020/12/30 00:55:34;;;;;;;5.15;3.28;;;;;;;19.95;40.94;98061.19;4992675;28;20069;-81
2020/12/30 00:58:20;;;;;;;5.25;3.50;;;;;;;19.95;40.98;98074.34;4992606;28;20034;-78
2020/12/30 01:01:08;;;;;;;5.68;3.08;;;;;;;19.95;40.85;98076.97;5000406;28;20034;-78
2020/12/30 01:03:54;;;;;;;5.07;3.22;;;;;;;19.94;41.00;98077.91;4992031;28;20035;-79
2020/12/30 01:06:39;;;;;;;6.53;3.63;;;;;;;19.94;41.02;98085.78;4991930;28;20105;-80
2020/12/30 01:09:26;;;;;;;5.13;3.30;;;;;;;19.93;40.84;98092.81;4994046;28;20507;-79
2020/12/30 01:12:12;;;;;;;4.38;3.22;;;;;;;19.94;40.77;98093.66;5004134;28;20173;-79
2020/12/30 01:14:58;;;;;;;4.95;3.00;;;;;;;19.94;40.74;98098.94;4992669;28;20038;-79
2020/12/30 01:17:44;;;;;;;4.90;2.88;;;;;;;19.91;40.95;98097.31;4992782;28;20093;-78
2020/12/30 01:20:30;;;;;;;4.55;3.22;;;;;;;19.91;40.98;98091.19;4991966;28;20053;-79
2020/12/30 01:23:16;;;;;;;4.35;2.50;;;;;;;19.91;40.89;98096.47;4993713;28;20034;-79
2020/12/30 01:26:02;;;;;;;5.03;2.85;;;;;;;19.88;41.08;98102.75;4992972;28;20039;-77
2020/12/30 01:28:47;;;;;;;5.32;2.88;;;;;;;19.89;40.85;98101.81;4991806;28;20902;-79
2020/12/30 01:31:35;;;;;;;4.03;2.63;;;;;;;19.88;40.88;98104.50;4991675;28;20480;-79
2020/12/30 01:34:20;;;;;;;4.72;2.85;;;;;;;19.89;41.05;98106.19;4992300;28;20042;-81
2020/12/30 01:37:06;;;;;;;4.30;2.83;;;;;;;19.89;41.08;98114.09;4992481;28;20502;-79
2020/12/30 01:39:52;;;;;;;4.07;2.53;;;;;;;19.89;40.98;98122.84;4991980;28;20034;-78
2020/12/30 01:42:46;;;;;;;4.30;2.58;;;;;;;19.87;41.02;98121.19;4991461;28;20043;-78
2020/12/30 01:45:32;;;;;;;4.70;2.70;;;;;;;19.87;40.90;98136.97;4992750;28;20411;-80
2020/12/30 01:48:21;;;;;;;7.88;2.80;;;;;;;19.87;40.92;98135.22;4991919;28;20034;-79
2020/12/30 01:51:08;;;;;;;3.75;2.42;;;;;;;19.89;40.94;98133.34;4992596;28;20069;-77
2020/12/30 01:53:54;;;;;;;3.95;2.50;;;;;;;19.87;40.89;98137.84;4990823;28;20046;-77
2020/12/30 01:56:40;;;;;;;4.32;2.75;;;;;;;19.88;41.18;98138.66;4992749;28;20061;-79
2020/12/30 01:59:26;;;;;;;3.65;2.20;;;;;;;19.88;40.85;98146.56;4992096;28;20407;-80
2020/12/30 02:02:13;;;;;;;3.67;2.53;;;;;;;19.86;41.21;98145.75;4990876;28;20042;-78
2020/12/30 02:05:00;;;;;;;4.82;2.60;;;;;;;19.88;40.82;98142.16;4997735;28;20053;-79
2020/12/30 02:07:46;;;;;;;4.18;2.13;;;;;;;19.87;41.04;98144.84;5011430;28;20395;-78
2020/12/30 02:10:32;;;;;;;4.20;2.40;;;;;;;19.89;41.04;98149.13;5010565;28;20129;-78
2020/12/30 02:13:18;;;;;;;4.25;2.65;;;;;;;19.86;40.86;98151.00;5011604;28;20037;-81
2020/12/30 02:16:03;;;;;;;3.17;2.15;;;;;;;19.85;40.85;98158.06;5012506;28;20050;-78
2020/12/30 02:18:49;;;;;;;4.82;2.50;;;;;;;19.86;40.90;98159.75;5010071;28;20499;-77
2020/12/30 02:21:36;;;;;;;3.95;2.38;;;;;;;19.87;41.09;98158.00;5011694;28;20045;-81
2020/12/30 02:24:26;;;;;;;4.03;2.40;;;;;;;19.87;40.59;98153.59;5011099;28;20038;-77
2020/12/30 02:27:13;;;;;;;4.43;2.75;;;;;;;19.87;40.98;98158.88;5011156;28;20038;-78
2020/12/30 02:29:58;;;;;;;3.60;2.55;;;;;;;19.86;40.75;98161.53;5009952;28;20573;-81
2020/12/30 02:32:47;;;;;;;4.75;2.38;;;;;;;19.88;40.79;98159.69;5011281;28;20096;-79
2020/12/30 02:35:32;;;;;;;3.42;2.42;;;;;;;19.88;41.09;98162.31;5010931;28;20407;-79
2020/12/30 02:38:22;;;;;;;3.95;2.60;;;;;;;19.87;40.93;98164.13;5011438;28;20128;-78
2020/12/30 02:41:08;;;;;;;5.10;2.25;;;;;;;19.88;40.88;98167.59;5009916;28;20037;-80
2020/12/30 02:43:54;;;;;;;4.97;2.80;;;;;;;19.86;40.85;98165.00;5010917;28;20033;-79
2020/12/30 02:46:40;;;;;;;3.42;2.20;;;;;;;19.86;41.31;98172.91;5009710;28;20042;-79
2020/12/30 02:49:25;;;;;;;3.00;2.30;;;;;;;19.86;40.88;98172.03;5010662;28;20427;-77
2020/12/30 02:52:11;;;;;;;4.88;2.47;;;;;;;19.87;40.90;98179.03;5011283;28;20514;-80
2020/12/30 02:54:57;;;;;;;4.03;2.25;;;;;;;19.89;40.79;98182.44;5011004;28;20495;-80
2020/12/30 02:57:42;;;;;;;3.65;2.10;;;;;;;19.87;40.81;98184.28;5011582;28;20036;-79
2020/12/30 03:00:28;;;;;;;4.13;2.50;;;;;;;19.89;40.71;98185.94;4995329;28;20042;-80
2020/12/30 03:03:14;;;;;;;3.40;2.22;;;;;;;19.86;41.11;98187.81;4990023;28;20042;-80
2020/12/30 03:06:00;;;;;;;3.55;2.22;;;;;;;19.86;40.86;98186.03;4990828;28;20046;-79
2020/12/30 03:08:45;;;;;;;4.18;2.47;;;;;;;19.86;41.04;98198.31;4991007;28;20042;-79
2020/12/30 03:11:31;;;;;;;4.25;2.08;;;;;;;19.88;40.86;98205.25;4991550;28;20511;-80
2020/12/30 03:14:18;;;;;;;4.13;2.35;;;;;;;19.85;41.04;98199.28;4990553;28;20030;-81
2020/12/30 03:17:05;;;;;;;3.97;2.10;;;;;;;19.84;40.98;98200.19;4990422;28;20045;-79
2020/12/30 03:19:51;;;;;;;3.25;2.30;;;;;;;19.84;41.02;98202.84;4989244;28;20042;-80
2020/12/30 03:22:36;;;;;;;4.18;2.22;;;;;;;19.83;40.96;98203.75;4990780;28;20041;-80
2020/12/30 03:25:22;;;;;;;3.67;2.20;;;;;;;19.83;40.99;98203.75;4990594;28;20121;-80
2020/12/30 03:28:08;;;;;;;2.67;1.92;;;;;;;19.85;40.72;98202.75;4989421;28;20039;-79
2020/12/30 03:30:54;;;;;;;3.53;2.00;;;;;;;19.86;40.96;98208.84;4991581;28;20042;-79
2020/12/30 03:33:39;;;;;;;2.78;1.98;;;;;;;19.83;41.07;98209.84;4990744;28;20384;-79
2020/12/30 03:36:25;;;;;;;2.90;2.00;;;;;;;19.83;40.76;98211.66;4990893;28;20509;-77
2020/12/30 03:39:11;;;;;;;2.97;1.77;;;;;;;19.83;40.99;98206.38;4989913;28;20031;-79
2020/12/30 03:41:56;;;;;;;2.38;1.60;;;;;;;19.82;40.72;98212.56;4989188;28;20487;-80
2020/12/30 03:44:42;;;;;;;2.97;2.00;;;;;;;19.84;40.91;98208.09;4990438;28;20093;-78
2020/12/30 03:47:30;;;;;;;2.88;1.70;;;;;;;19.86;40.79;98208.84;4991554;28;20459;-79
2020/12/30 03:50:15;;;;;;;4.63;2.08;;;;;;;19.83;41.14;98206.38;4988880;28;20038;-80
2020/12/30 03:53:01;;;;;;;2.97;1.60;;;;;;;19.82;40.95;98213.41;4996293;28;20449;-79
2020/12/30 03:55:47;;;;;;;2.85;1.90;;;;;;;19.82;40.85;98209.94;5008732;28;20579;-79
2020/12/30 03:58:34;;;;;;;2.53;1.50;;;;;;;19.81;41.16;98214.34;5008753;28;20053;-79
2020/12/30 04:01:19;;;;;;;2.58;1.77;;;;;;;19.81;40.89;98216.97;4993666;28;20038;-80
2020/12/30 04:04:05;;;;;;;2.80;2.05;;;;;;;19.82;41.02;98225.72;4989751;28;20186;-80
2020/12/30 04:06:51;;;;;;;3.13;2.00;;;;;;;19.85;40.92;98228.19;4990495;28;20077;-79
2020/12/30 04:09:36;;;;;;;3.17;1.92;;;;;;;19.84;40.75;98231.75;4993216;28;20042;-81
2020/12/30 04:12:22;;;;;;;3.63;1.83;;;;;;;19.84;41.13;98229.13;4995392;28;20056;-78
2020/12/30 04:15:08;;;;;;;3.58;1.90;;;;;;;19.83;40.82;98241.38;4992861;28;20847;-80
2020/12/30 04:17:53;;;;;;;3.17;1.80;;;;;;;19.82;40.85;98237.06;4993508;28;20522;-80
2020/12/30 04:20:39;;;;;;;3.22;1.45;;;;;;;19.82;40.92;98244.13;4993644;28;20439;-78
2020/12/30 04:23:25;;;;;;;3.38;1.98;;;;;;;19.83;40.95;98240.56;4993163;28;20036;-78
2020/12/30 04:26:12;;;;;;;3.45;2.05;;;;;;;19.84;40.73;98247.50;4992154;28;20554;-79
2020/12/30 04:28:57;;;;;;;4.28;2.00;;;;;;;19.84;41.05;98240.47;4992767;28;20065;-78
2020/12/30 04:31:43;;;;;;;3.60;2.00;;;;;;;19.85;40.90;98241.34;4993049;28;20077;-77
2020/12/30 04:34:29;;;;;;;2.92;1.75;;;;;;;19.82;40.77;98239.69;4994074;28;20046;-79
2020/12/30 04:37:14;;;;;;;2.70;1.60;;;;;;;19.80;41.15;98233.66;4992293;28;20467;-79
2020/12/30 04:40:00;;;;;;;2.58;2.10;;;;;;;19.81;40.90;98242.41;4994394;28;20500;-79
2020/12/30 04:42:49;;;;;;;3.90;1.80;;;;;;;19.82;40.93;98246.75;4992058;28;20066;-79
2020/12/30 04:45:35;;;;;;;3.35;2.03;;;;;;;19.80;41.18;98251.22;4992350;28;20046;-80
2020/12/30 04:48:24;;;;;;;2.45;1.63;;;;;;;19.78;41.14;98251.28;4994327;28;20049;-79
2020/12/30 04:51:11;;;;;;;3.20;1.90;;;;;;;19.77;41.02;98254.88;4992368;28;20570;-77
2020/12/30 04:54:00;;;;;;;2.65;1.80;;;;;;;19.77;40.84;98247.81;4993491;28;20088;-79
2020/12/30 04:57:04;;;;;;;2.67;1.98;;;;;;;19.75;40.91;98257.56;4993169;28;20034;-79
2020/12/30 04:59:53;;;;;;;2.33;1.60;;;;;;;19.74;40.73;98258.47;4996648;28;20572;-78
2020/12/30 05:02:48;;;;;;;3.47;1.95;;;;;;;19.76;41.01;98254.00;5012052;28;20089;-78
2020/12/30 05:05:35;;;;;;;3.33;1.92;;;;;;;19.78;40.69;98256.53;5012766;28;20148;-79
2020/12/30 05:08:21;;;;;;;2.95;1.77;;;;;;;19.78;40.65;98260.03;5012819;28;20121;-79
2020/12/30 05:11:07;;;;;;;3.80;2.20;;;;;;;19.74;40.83;98255.00;5013054;28;20523;-78
2020/12/30 05:13:52;;;;;;;2.25;1.40;;;;;;;19.71;40.96;98252.53;5012132;28;20419;-78
2020/12/30 05:16:38;;;;;;;3.40;1.77;;;;;;;19.70;41.02;98261.34;5026198;28;20073;-78
2020/12/30 05:19:25;;;;;;;3.78;1.67;;;;;;;19.72;41.12;98259.50;5012189;28;20132;-78
2020/12/30 05:22:20;;;;;;;3.38;2.28;;;;;;;19.72;40.98;98265.59;5011772;28;20041;-79
2020/12/30 05:25:06;;;;;;;2.83;1.55;;;;;;;19.72;41.07;98265.59;5011322;28;20049;-82
2020/12/30 05:27:53;;;;;;;2.70;1.80;;;;;;;19.73;40.96;98264.66;5011827;28;20399;-79
2020/12/30 05:30:43;;;;;;;2.92;1.58;;;;;;;19.72;41.11;98265.59;5012565;28;20096;-79
2020/12/30 05:33:30;;;;;;;3.42;1.85;;;;;;;19.73;40.80;98267.28;5010474;28;20052;-79
2020/12/30 05:36:16;;;;;;;3.58;1.80;;;;;;;19.75;40.95;98270.69;5011491;28;20104;-78
2020/12/30 05:39:03;;;;;;;2.92;1.70;;;;;;;19.73;40.92;98280.41;5011109;28;20072;-78
2020/12/30 05:41:50;;;;;;;2.88;1.83;;;;;;;19.74;40.96;98279.50;5010659;28;20057;-77
2020/12/30 05:44:35;;;;;;;2.15;1.45;;;;;;;19.74;41.20;98274.25;5012600;28;20049;-79
2020/12/30 05:47:27;;;;;;;3.33;1.80;;;;;;;19.73;40.81;98276.97;5012248;28;20037;-79
2020/12/30 05:50:21;;;;;;;2.20;1.58;;;;;;;19.74;41.06;98279.50;5010192;28;20038;-79
2020/12/30 05:53:14;;;;;;;2.78;1.65;;;;;;;19.74;41.04;98295.25;5010157;28;20108;-79
2020/12/30 05:56:09;;;;;;;4.82;2.17;;;;;;;19.73;40.93;98290.09;5011681;28;20055;-79
2020/12/30 05:58:56;;;;;;;4.20;1.92;;;;;;;19.75;41.02;98293.50;5012064;28;20101;-79
2020/12/30 06:01:44;;;;;;;3.75;1.98;;;;;;;19.73;41.37;98297.97;4992889;28;20507;-78
2020/12/30 06:04:31;;;;;;;4.03;2.05;;;;;;;19.73;41.10;98296.19;4991184;28;20034;-79
2020/12/30 06:07:19;;;;;;;3.85;1.85;;;;;;;19.73;41.00;98303.25;4992272;28;20049;-80
2020/12/30 06:10:06;;;;;;;3.38;2.05;;;;;;;19.71;40.99;98300.66;4991416;28;20113;-78
2020/12/30 06:12:59;;;;;;;2.80;1.90;;;;;;;19.72;40.85;98305.00;4992589;28;20022;-79
2020/12/30 06:15:47;;;;;;;2.53;1.70;;;;;;;19.71;40.73;98305.09;4991049;28;20411;-77
2020/12/30 06:18:39;;;;;;;3.38;2.00;;;;;;;19.72;41.07;98301.53;4991830;28;20038;-78
2020/12/30 06:21:26;;;;;;;3.20;2.00;;;;;;;19.71;40.98;98300.66;4992087;28;20050;-80
2020/12/30 06:24:14;;;;;;;3.80;2.03;;;;;;;19.70;41.09;98308.63;4991847;28;20392;-79
2020/12/30 06:27:06;;;;;;;2.95;1.75;;;;;;;19.71;40.93;98320.84;4991823;28;20065;-79
2020/12/30 06:29:57;;;;;;;2.75;1.73;;;;;;;19.70;41.08;98325.25;4992419;28;20472;-78
2020/12/30 06:32:43;;;;;;;3.03;1.45;;;;;;;19.71;40.92;98332.19;4991373;28;20041;-78
2020/12/30 06:35:30;;;;;;;6.95;2.08;;;;;;;19.71;41.07;98336.63;4990425;28;20044;-78
2020/12/30 06:38:16;;;;;;;2.30;1.70;;;;;;;19.71;40.84;98342.72;4991285;28;20045;-81
2020/12/30 06:41:04;;;;;;;2.78;2.15;;;;;;;19.72;40.85;98344.41;4990740;28;20134;-78
2020/12/30 06:43:50;;;;;;;2.90;2.03;;;;;;;19.72;40.97;98349.66;4990832;28;20042;-80
2020/12/30 06:46:37;;;;;;;4.18;1.92;;;;;;;19.71;40.87;98355.84;4990519;28;20515;-79
2020/12/30 06:49:22;;;;;;;3.05;1.83;;;;;;;19.71;41.06;98361.09;4991407;28;20074;-77
2020/12/30 06:52:24;;;;;;;4.07;2.20;;;;;;;19.70;40.98;98367.28;4989875;28;20035;-79
2020/12/30 06:55:10;;;;;;;4.10;2.00;;;;;;;19.69;41.04;98367.38;4991100;28;20038;-79
2020/12/30 06:57:55;;;;;;;3.00;1.77;;;;;;;19.72;41.24;98377.75;4991669;28;20495;-80
2020/12/30 07:00:41;;;;;;;3.30;1.83;;;;;;;19.70;41.26;98380.44;4990481;28;20046;-82
2020/12/30 07:03:31;;;;;;;4.22;2.17;;;;;;;19.70;41.04;98377.81;4991306;28;20462;-79
2020/12/30 07:06:20;;;;;;;3.25;1.88;;;;;;;19.71;41.05;98382.13;4991117;28;20112;-78
2020/12/30 07:09:06;;;;;;;4.28;2.20;;;;;;;19.71;41.26;98384.75;4991056;28;20085;-80
2020/12/30 07:11:53;;;;;;;3.00;1.88;;;;;;;19.71;40.92;98391.81;4991570;28;20096;-77
2020/12/30 07:14:39;;;;;;;3.38;2.08;;;;;;;19.72;40.85;98393.50;4992620;28;20046;-79
2020/12/30 07:17:25;;;;;;;4.25;1.90;;;;;;;19.71;40.86;98397.06;4992368;28;20062;-80
2020/12/30 07:20:21;;;;;;;3.15;1.98;;;;;;;19.69;40.94;98406.78;4991715;28;20042;-79
2020/12/30 07:23:10;;;;;;;5.97;2.35;;;;;;;19.70;40.98;98411.97;4990795;28;20125;-82
2020/12/30 07:25:58;;;;;;;2.78;1.85;;;;;;;19.72;41.04;98415.38;4990743;28;20458;-79
2020/12/30 07:28:46;;;;;;;3.50;1.80;;;;;;;19.71;40.89;98425.97;4991824;28;20471;-80
2020/12/30 07:31:34;;;;;;;2.92;2.15;;;;;;;19.72;40.79;98428.50;4990487;28;20493;-78
2020/12/30 07:34:25;;;;;;;5.70;2.13;;;;;;;19.71;40.72;98437.31;4990616;28;20072;-79
2020/12/30 07:37:12;;;;;;;5.72;2.45;;;;;;;19.70;40.82;98438.25;5003276;28;20092;-78
2020/12/30 07:39:58;;;;;;;3.00;1.83;;;;;;;19.72;41.04;98440.81;4990360;28;20097;-82
2020/12/30 07:42:43;;;;;;;2.33;1.75;;;;;;;19.71;40.99;98447.84;4994670;28;20423;-78
2020/12/30 07:45:29;;;;;;;3.55;1.77;;;;;;;19.71;41.04;98450.47;4994917;28;20038;-79
2020/12/30 07:48:15;;;;;;;2.88;1.85;;;;;;;19.70;41.02;98448.75;4993631;28;20046;-80
2020/12/30 07:51:00;;;;;;;4.78;1.90;;;;;;;19.70;41.03;98455.81;4994902;28;20039;-76
2020/12/30 07:53:52;;;;;;;4.10;2.00;;;;;;;19.70;40.91;98464.53;4994394;28;20038;-78
2020/12/30 07:56:38;;;;;;;3.28;1.80;;;;;;;19.71;40.88;98470.66;4994888;28;20856;-79
2020/12/30 07:59:25;;;;;;;3.33;2.00;;;;;;;19.70;40.87;98467.16;4993246;28;20049;-79
2020/12/30 08:02:12;;;;;;;2.45;1.58;;;;;;;19.71;40.94;98476.75;4993167;28;20091;-79
2020/12/30 08:05:02;;;;;;;3.22;2.00;;;;;;;19.73;40.79;98487.19;5006303;28;20057;-79
2020/12/30 08:07:47;;;;;;;3.30;1.80;;;;;;;19.73;40.85;98487.19;4991810;28;20137;-79
2020/12/30 08:10:33;;;;;;;2.75;1.70;;;;;;;19.71;40.89;98484.63;4990650;28;20061;-80
2020/12/30 08:13:20;;;;;;;4.55;2.00;;;;;;;19.73;41.19;98490.66;4991976;28;20046;-79
2020/12/30 08:16:10;;;;;;;3.95;2.03;;;;;;;19.76;41.13;98497.56;4992698;28;20411;-78
2020/12/30 08:18:55;;;;;;;3.97;2.05;;;;;;;19.73;40.92;98503.81;5007143;28;20061;-78
2020/12/30 08:21:41;;;;;;;5.68;2.38;;;;;;;19.72;40.91;98512.59;4994772;28;20042;-76
2020/12/30 08:24:31;;;;;;;11.88;2.05;;;;;;;19.69;40.66;98518.03;4994066;28;20041;-75
2020/12/30 08:27:22;;;;;;;2.72;1.80;;;;;;;19.70;41.01;98516.25;4994947;28;20057;-78
2020/12/30 08:30:08;;;;;;;3.78;2.20;;;;;;;19.69;40.60;98522.41;4995427;28;20038;-78
2020/12/30 08:32:58;;;;;;;3.88;1.80;;;;;;;19.70;40.43;98524.97;4997903;28;20511;-78
2020/12/30 08:35:47;;;;;;;5.30;2.38;;;;;;;19.68;40.47;98529.47;5010419;28;20041;-76
2020/12/30 08:38:34;;;;;;;6.20;2.30;;;;;;;19.69;40.04;98530.31;5012549;28;20414;-78
2020/12/30 08:41:27;;;;;;;4.03;2.85;;;;;;;19.68;39.85;98533.84;5014687;28;20076;-77
2020/12/30 08:44:18;;;;;;;6.05;3.55;;;;;;;19.62;39.65;98537.63;5009120;28;20192;-78
2020/12/30 08:47:06;;;;;;;6.57;2.97;;;;;;;19.60;39.55;98537.69;4994760;28;20047;-79
2020/12/30 08:49:54;;;;;;;4.35;3.05;;;;;;;19.52;39.43;98537.19;4994008;28;20030;-76
2020/12/30 08:52:42;;;;;;;7.97;3.20;;;;;;;19.48;39.02;98541.72;4994050;28;20100;-78
2020/12/30 08:55:28;;;;;;;6.47;4.05;;;;;;;19.62;39.55;98541.09;4993940;28;20038;-78
2020/12/30 08:58:13;;;;;;;8.85;3.50;;;;;;;19.64;39.54;98548.91;4992031;28;20113;-75
2020/12/30 09:00:59;;;;;;;12.57;3.30;;;;;;;19.66;39.53;98539.19;4993543;28;20030;-73
2020/12/30 09:03:45;;;;;;;4.40;2.78;;;;;;;19.65;39.71;98548.00;4992224;28;20041;-74
2020/12/30 09:06:31;;;;;;;7.80;3.33;;;;;;;19.66;39.80;98552.31;4993295;28;20470;-79
2020/12/30 09:09:20;;;;;;;6.35;3.75;;;;;;;19.66;39.71;98549.69;4993980;28;20050;-78
2020/12/30 09:12:06;;;;;;;5.60;2.63;;;;;;;19.70;39.72;98553.03;4997225;28;20042;-74
2020/12/30 09:14:52;;;;;;;8.60;3.13;;;;;;;19.72;39.79;98564.34;4994047;28;20045;-79
2020/12/30 09:17:37;;;;;;;6.80;2.90;;;;;;;19.76;40.11;98563.28;4994123;28;20101;-80
2020/12/30 09:20:23;;;;;;;5.22;2.88;;;;;;;19.80;39.93;98567.44;4993225;28;20499;-75
2020/12/30 09:23:09;;;;;;;6.05;2.70;;;;;;;19.83;39.72;98572.56;4993457;28;20124;-75
2020/12/30 09:25:56;;;;;;;6.35;3.10;;;;;;;19.83;40.04;98569.13;4993176;28;20046;-75
2020/12/30 09:28:42;;;;;;;4.10;2.30;;;;;;;19.86;39.99;98572.44;4997415;28;20426;-80
2020/12/30 09:31:27;;;;;;;19.52;2.53;;;;;;;19.86;40.05;98572.44;5010722;28;20488;-73
2020/12/30 09:34:17;;;;;;;6.03;2.53;;;;;;;19.83;40.15;98577.84;5002114;28;20038;-74
2020/12/30 09:36:56;;;;;;;4.18;2.20;;;;;;;19.82;40.27;98584.00;5022311;28;20402;-73
2020/12/30 09:39:23;;;;;;;5.57;2.40;;;;;;;19.80;40.23;98579.75;5033328;28;20038;-74
2020/12/30 09:41:49;;;;;;;8.52;2.70;;;;;;;19.78;40.51;98587.69;5030611;28;20041;-75
2020/12/30 09:44:14;;;;;;;5.32;2.30;;;;;;;19.78;40.48;98592.94;5008562;28;20391;-75
2020/12/30 09:46:50;;;;;;;5.38;2.90;;;;;;;19.74;40.07;98597.50;4994102;28;20089;-75
2020/12/30 09:49:17;;;;;;;12.65;3.30;;;;;;;19.71;40.08;98600.25;4994049;28;20027;-74
2020/12/30 09:51:42;;;;;;;7.50;3.38;;;;;;;19.70;40.14;98598.56;4997626;28;20074;-75
2020/12/30 09:54:08;;;;;;;7.97;3.40;;;;;;;19.70;40.13;98609.06;5003286;28;20144;-74
2020/12/30 09:56:33;;;;;;;4.68;2.80;;;;;;;19.71;39.93;98610.78;5003833;28;20479;-73
2020/12/30 09:58:58;;;;;;;15.15;3.42;;;;;;;19.71;40.09;98605.50;5002970;28;20062;-76
2020/12/30 10:01:24;;;;;;;8.27;2.65;;;;;;;19.73;40.25;98613.34;5001772;28;20074;-73
2020/12/30 10:03:49;;;;;;;6.93;3.22;;;;;;;19.78;40.11;98611.34;5002196;28;20124;-75
2020/12/30 10:06:14;;;;;;;6.13;2.60;;;;;;;19.76;40.17;98614.06;5001722;28;20030;-75
2020/12/30 10:08:41;;;;;;;9.25;2.80;;;;;;;19.81;40.18;98626.16;5002262;28;20030;-76
2020/12/30 10:11:06;;;;;;;7.55;3.10;;;;;;;19.79;40.29;98613.06;5002067;28;20049;-78
2020/12/30 10:13:33;;;;;;;4.80;2.97;;;;;;;19.80;40.22;98620.03;5002033;28;20060;-74
2020/12/30 10:15:58;;;;;;;12.75;4.35;;;;;;;19.82;40.16;98627.84;5002899;28;20038;-75
2020/12/30 10:18:26;;;;;;;12.48;3.22;;;;;;;19.79;40.39;98618.31;5003681;28;20034;-74
2020/12/30 10:20:51;;;;;;;12.68;3.03;;;;;;;19.83;40.27;98625.16;5002989;28;20045;-73
2020/12/30 10:23:17;;;;;;;13.48;3.92;;;;;;;19.76;40.45;98624.56;5002872;28;20034;-72
2020/12/30 10:25:42;;;;;;;10.40;3.80;;;;;;;19.77;40.36;98628.06;5001394;28;20091;-75
2020/12/30 10:28:08;;;;;;;8.05;2.80;;;;;;;19.77;40.29;98625.44;5001222;28;20034;-76
2020/12/30 10:30:33;;;;;;;22.20;3.10;;;;;;;19.79;40.46;98631.47;5008627;28;20100;-76
2020/12/30 10:32:59;;;;;;;9.80;3.08;;;;;;;19.81;40.20;98632.25;5007925;28;20030;-73
2020/12/30 10:35:24;;;;;;;8.52;3.10;;;;;;;19.80;40.18;98627.06;5001453;28;20178;-74
2020/12/30 10:37:50;;;;;;;8.32;3.55;;;;;;;19.82;40.27;98638.38;5008058;28;20113;-74
2020/12/30 10:40:16;;;;;;;22.92;5.50;;;;;;;19.87;40.40;98636.41;5000872;28;20044;-76
2020/12/30 10:42:41;;;;;;;9.98;4.35;;;;;;;19.90;40.35;98618.75;5007088;28;20029;-75
2020/12/30 10:45:07;;;;;;;7.50;3.45;;;;;;;19.97;40.33;98627.19;5006670;28;20091;-76
2020/12/30 10:47:32;;;;;;;8.98;3.72;;;;;;;19.98;40.57;98626.28;5005520;28;20033;-75
2020/12/30 10:49:58;;;;;;;22.88;4.30;;;;;;;19.99;40.14;98630.63;5005548;28;20058;-78
2020/12/30 10:52:24;;;;;;;8.27;3.80;;;;;;;19.99;40.39;98637.63;5006307;28;20038;-79
2020/12/30 10:54:50;;;;;;;9.88;3.40;;;;;;;19.98;40.28;98635.94;5009673;28;20034;-77
2020/12/30 10:57:17;;;;;;;9.80;3.95;;;;;;;20.00;40.44;98637.59;5006876;28;20025;-75
2020/12/30 10:59:42;;;;;;;8.18;3.80;;;;;;;20.05;40.31;98632.13;5009871;28;20113;-75
2020/12/30 11:02:08;;;;;;;6.35;2.78;;;;;;;20.04;40.38;98636.50;5017044;28;20164;-77
2020/12/30 11:04:33;;;;;;;8.68;3.53;;;;;;;20.08;40.16;98635.44;5015182;28;20045;-80
2020/12/30 11:06:59;;;;;;;10.68;3.38;;;;;;;20.11;40.35;98639.69;5014546;28;20037;-75
2020/12/30 11:09:25;;;;;;;10.20;3.65;;;;;;;20.14;40.44;98638.72;5017271;28;20041;-75
2020/12/30 11:11:50;;;;;;;5.95;3.08;;;;;;;20.23;40.25;98641.78;5023436;28;20474;-73
2020/12/30 11:14:15;;;;;;;11.45;3.45;;;;;;;20.28;40.47;98638.94;5024836;28;20116;-78
2020/12/30 11:16:46;;;;;;;12.15;3.33;;;;;;;20.32;40.33;98644.91;5024779;28;20049;-74
2020/12/30 11:19:12;;;;;;;7.72;3.78;;;;;;;20.31;40.08;98637.94;5020363;28;20084;-75
2020/12/30 11:21:37;;;;;;;8.80;3.47;;;;;;;20.33;40.15;98642.19;5026546;28;20033;-77
2020/12/30 11:24:02;;;;;;;23.15;4.80;;;;;;;20.35;40.24;98636.88;5019907;28;20072;-77
2020/12/30 11:26:28;;;;;;;7.38;3.80;;;;;;;20.29;40.29;98638.03;5020437;28;20105;-75
2020/12/30 11:28:53;;;;;;;9.05;3.80;;;;;;;20.22;40.60;98631.31;5016501;28;20034;-73
2020/12/30 11:31:19;;;;;;;12.70;3.92;;;;;;;20.14;40.27;98628.22;5023699;28;20570;-73
2020/12/30 11:33:46;;;;;;;14.63;3.97;;;;;;;20.08;40.70;98635.44;5010188;28;20052;-74
2020/12/30 11:36:11;;;;;;;8.30;3.70;;;;;;;20.05;40.70;98630.31;5020002;28;20045;-72
2020/12/30 11:38:37;;;;;;;17.63;4.68;;;;;;;20.07;40.53;98630.28;5014017;28;20128;-72
2020/12/30 11:41:03;;;;;;;16.13;4.32;;;;;;;20.03;40.77;98632.16;5015177;28;20064;-77
2020/12/30 11:43:28;;;;;;;23.75;4.50;;;;;;;20.03;40.83;98637.41;5024618;28;20080;-73
2020/12/30 11:45:53;;;;;;;17.90;5.05;;;;;;;20.02;40.43;98634.88;5019446;28;20122;-74
2020/12/30 11:48:20;;;;;;;13.65;4.47;;;;;;;20.02;40.44;98633.09;5025549;28;20402;-76
2020/12/30 11:50:45;;;;;;;12.05;4.88;;;;;;;20.02;40.52;98630.44;5019484;28;20026;-74
2020/12/30 11:53:11;;;;;;;10.38;4.50;;;;;;;19.99;40.44;98635.88;5020343;28;20033;-76
2020/12/30 11:55:36;;;;;;;15.63;4.68;;;;;;;19.99;40.52;98630.63;5022125;28;20486;-73
2020/12/30 11:58:02;;;;;;;16.50;5.22;;;;;;;19.99;40.42;98633.25;5024242;28;20052;-73
2020/12/30 12:00:28;;;;;;;9.10;4.10;;;;;;;20.00;40.39;98628.81;5022915;28;20044;-75
2020/12/30 12:02:53;;;;;;;14.95;5.13;;;;;;;19.96;40.46;98636.00;5021782;28;20046;-77
2020/12/30 12:05:19;;;;;;;11.27;4.53;;;;;;;19.96;40.46;98637.75;5024023;28;20041;-74
2020/12/30 12:07:44;;;;;;;12.40;4.22;;;;;;;19.94;40.47;98632.59;5024508;28;20122;-73
2020/12/30 12:10:11;;;;;;;15.45;4.43;;;;;;;19.95;40.62;98638.69;5014832;28;20038;-76
2020/12/30 12:12:37;;;;;;;8.38;4.10;;;;;;;19.96;40.39;98643.91;5008094;28;20037;-75
2020/12/30 12:15:05;;;;;;;9.27;4.53;;;;;;;19.95;40.37;98650.06;5025236;28;20041;-73
2020/12/30 12:17:31;;;;;;;8.50;4.05;;;;;;;19.97;40.46;98640.34;5022712;28;20033;-76
2020/12/30 12:19:56;;;;;;;19.65;4.78;;;;;;;19.97;40.53;98639.47;5022937;28;20042;-74
2020/12/30 12:22:22;;;;;;;6.15;3.72;;;;;;;19.98;40.53;98635.94;5023400;28;20038;-73
2020/12/30 12:24:47;;;;;;;9.40;3.80;;;;;;;19.97;40.58;98639.47;5018577;28;20029;-73
2020/12/30 12:27:12;;;;;;;9.70;4.03;;;;;;;19.99;40.33;98635.88;5021504;28;20033;-75
2020/12/30 12:29:43;;;;;;;10.10;4.50;;;;;;;19.98;40.66;98636.81;5019039;28;20617;-78
2020/12/30 12:32:10;;;;;;;11.57;4.13;;;;;;;19.99;40.55;98632.38;5025677;28;20037;-78
2020/12/30 12:34:37;;;;;;;7.85;3.20;;;;;;;19.98;40.58;98630.66;5042036;28;20052;-74
2020/12/30 12:37:05;;;;;;;6.80;3.67;;;;;;;19.99;40.47;98629.75;5029313;28;20044;-73